Time;durP1;ratioP1;P1;durP2;ratioP2;P2;SDS_P1;SDS_P2;PMS_P1;PMS_P2;Temp;Humidity;BMP_temperature;BMP_pressure;BME280_temperature;BME280_humidity;BME280_pressure;Samples;Min_cycle;Max_cycle;Signal;HPM_P1;HPM_P2
2022/12/07 00:00:54;;;;;;;20.65;9.45;;;4.90;99.90;;;;;;5014951;28;19906;-69
2022/12/07 00:03:20;;;;;;;27.83;9.45;;;4.90;99.90;;;;;;5021161;28;20028;-68
2022/12/07 00:05:46;;;;;;;23.23;9.57;;;4.90;99.90;;;;;;5015532;28;20022;-68
2022/12/07 00:08:11;;;;;;;21.83;9.05;;;4.90;99.90;;;;;;5014318;28;20018;-68
2022/12/07 00:10:37;;;;;;;25.80;10.57;;;4.90;99.90;;;;;;5014699;28;20018;-68
2022/12/07 00:13:02;;;;;;;22.63;10.05;;;4.90;99.90;;;;;;5014224;28;20041;-68
2022/12/07 00:15:28;;;;;;;24.60;10.70;;;4.90;99.90;;;;;;5014462;28;20088;-68
2022/12/07 00:17:53;;;;;;;26.73;10.60;;;4.90;99.90;;;;;;5014706;28;20029;-68
2022/12/07 00:20:19;;;;;;;20.38;10.10;;;4.60;99.90;;;;;;5015380;28;20022;-68
2022/12/07 00:22:44;;;;;;;25.33;11.15;;;4.70;99.90;;;;;;5014964;28;20026;-68
2022/12/07 00:25:10;;;;;;;26.05;10.15;;;4.90;99.90;;;;;;5014117;28;20089;-68
2022/12/07 00:27:35;;;;;;;25.38;10.70;;;4.90;99.90;;;;;;5015249;28;20105;-68
2022/12/07 00:30:01;;;;;;;24.48;10.68;;;4.90;99.90;;;;;;5015235;28;20025;-68
2022/12/07 00:32:26;;;;;;;21.30;9.85;;;4.80;99.90;;;;;;5015449;28;20022;-68
2022/12/07 00:34:52;;;;;;;27.20;10.63;;;4.90;99.90;;;;;;5014147;28;20044;-68
2022/12/07 00:37:17;;;;;;;19.17;9.23;;;4.90;99.90;;;;;;5015283;28;20026;-68
2022/12/07 00:39:43;;;;;;;22.15;10.40;;;5.00;99.90;;;;;;5014926;28;20034;-68
2022/12/07 00:42:08;;;;;;;23.30;10.35;;;5.10;99.90;;;;;;5013766;28;20026;-68
2022/12/07 00:44:34;;;;;;;23.05;10.05;;;5.10;99.90;;;;;;5015052;28;20106;-68
2022/12/07 00:46:59;;;;;;;23.85;10.70;;;5.10;99.90;;;;;;5014111;28;20032;-68
2022/12/07 00:49:25;;;;;;;24.80;11.23;;;5.10;99.90;;;;;;5013506;28;20076;-68
2022/12/07 00:51:50;;;;;;;25.13;10.13;;;5.00;99.90;;;;;;5014372;28;20026;-68
2022/12/07 00:54:16;;;;;;;28.13;12.43;;;5.00;99.90;;;;;;5013425;28;20119;-68
2022/12/07 00:56:41;;;;;;;25.02;11.57;;;4.80;99.90;;;;;;5013533;28;20034;-68
2022/12/07 00:59:11;;;;;;;21.40;10.15;;;4.70;99.90;;;;;;5014563;28;20022;-68
2022/12/07 01:01:37;;;;;;;26.60;11.40;;;4.50;99.90;;;;;;5013497;28;20033;-68
2022/12/07 01:04:03;;;;;;;25.95;10.88;;;4.50;99.90;;;;;;5014576;28;20025;-68
2022/12/07 01:06:29;;;;;;;29.17;11.02;;;4.50;99.90;;;;;;5013339;28;20022;-68
2022/12/07 01:08:55;;;;;;;23.80;11.00;;;4.50;99.90;;;;;;5021238;28;20022;-68
2022/12/07 01:11:23;;;;;;;25.67;11.55;;;4.60;99.90;;;;;;5013189;28;20029;-68
2022/12/07 01:13:54;;;;;;;29.20;11.48;;;4.80;99.90;;;;;;5013839;28;20083;-68
2022/12/07 01:16:22;;;;;;;25.90;10.73;;;5.00;99.90;;;;;;5014160;28;20037;-68
2022/12/07 01:18:50;;;;;;;25.27;11.25;;;5.10;99.90;;;;;;5014206;28;20034;-68
2022/12/07 01:21:21;;;;;;;23.98;9.65;;;5.20;99.90;;;;;;5014481;28;20021;-68
2022/12/07 01:23:47;;;;;;;25.05;11.05;;;5.20;99.90;;;;;;5013185;28;20033;-68
2022/12/07 01:26:15;;;;;;;26.20;11.48;;;5.20;99.90;;;;;;5014018;28;20026;-68
2022/12/07 01:28:41;;;;;;;27.83;11.35;;;5.10;99.90;;;;;;5012784;28;20018;-68
2022/12/07 01:31:11;;;;;;;25.60;10.70;;;5.10;99.90;;;;;;5013148;28;20073;-68
2022/12/07 01:33:38;;;;;;;27.90;11.50;;;5.00;99.90;;;;;;5012780;28;20018;-68
2022/12/07 01:36:26;;;;;;;27.60;11.60;;;5.10;99.90;;;;;;5013417;28;20026;-68
2022/12/07 01:38:56;;;;;;;27.42;10.63;;;5.20;99.90;;;;;;5014483;28;20097;-68
2022/12/07 01:41:23;;;;;;;29.65;12.77;;;5.30;99.90;;;;;;5014317;28;20018;-68
2022/12/07 01:44:09;;;;;;;29.17;11.35;;;5.20;99.90;;;;;;5013832;28;20486;-68
2022/12/07 01:46:35;;;;;;;28.45;11.68;;;5.30;99.90;;;;;;5012499;28;20026;-68
2022/12/07 01:49:02;;;;;;;29.52;11.10;;;5.20;99.90;;;;;;5013775;28;20028;-68
2022/12/07 01:51:28;;;;;;;29.05;12.07;;;5.20;99.90;;;;;;5012898;28;20421;-69
2022/12/07 01:53:54;;;;;;;27.17;12.35;;;5.20;99.90;;;;;;5012435;28;20033;-68
2022/12/07 01:56:23;;;;;;;22.40;9.68;;;5.20;99.90;;;;;;5012614;28;20038;-68
2022/12/07 01:58:50;;;;;;;25.67;10.55;;;5.20;99.90;;;;;;5012744;28;20505;-68
2022/12/07 02:01:16;;;;;;;24.65;11.27;;;5.20;99.90;;;;;;5012601;28;20022;-68
2022/12/07 02:03:44;;;;;;;24.63;10.82;;;5.20;99.90;;;;;;5013585;28;20030;-68
2022/12/07 02:06:14;;;;;;;25.20;11.23;;;5.20;99.90;;;;;;5012190;28;20022;-68
2022/12/07 02:08:41;;;;;;;24.23;10.32;;;5.20;99.90;;;;;;5012476;28;20026;-68
2022/12/07 02:11:07;;;;;;;23.13;9.65;;;5.20;99.90;;;;;;5013319;28;20022;-68
2022/12/07 02:13:36;;;;;;;22.88;9.85;;;5.30;99.90;;;;;;5018625;28;20022;-69
2022/12/07 02:16:20;;;;;;;22.45;10.05;;;5.20;99.90;;;;;;5011998;28;20022;-68
2022/12/07 02:19:01;;;;;;;18.40;8.57;;;5.20;99.90;;;;;;5013458;28;20076;-68
2022/12/07 02:21:37;;;;;;;19.55;9.30;;;5.20;99.90;;;;;;5013825;28;20021;-68
2022/12/07 02:24:28;;;;;;;21.05;9.13;;;5.20;99.90;;;;;;5012169;28;20030;-68
2022/12/07 02:27:24;;;;;;;22.13;9.15;;;5.10;99.90;;;;;;5012276;28;20022;-68
2022/12/07 02:30:01;;;;;;;19.80;8.60;;;5.10;99.90;;;;;;5013329;28;20057;-68
2022/12/07 02:32:55;;;;;;;21.38;8.55;;;5.10;99.90;;;;;;5013677;28;20029;-68
2022/12/07 02:35:27;;;;;;;21.40;8.50;;;4.90;99.90;;;;;;5013333;28;20021;-68
2022/12/07 02:38:14;;;;;;;22.80;8.95;;;5.00;99.90;;;;;;5013189;28;20048;-68
2022/12/07 02:40:42;;;;;;;18.83;8.57;;;5.10;99.90;;;;;;5013594;28;20069;-68
2022/12/07 02:43:13;;;;;;;22.08;8.50;;;5.10;99.90;;;;;;5015886;28;20026;-68
2022/12/07 02:45:41;;;;;;;21.00;8.68;;;5.00;99.90;;;;;;5017580;28;20036;-68
2022/12/07 02:48:08;;;;;;;23.90;8.82;;;4.90;99.90;;;;;;5015773;28;20030;-68
2022/12/07 02:50:34;;;;;;;19.42;8.93;;;4.90;99.90;;;;;;5015744;28;20102;-68
2022/12/07 02:52:59;;;;;;;22.67;8.95;;;4.90;99.90;;;;;;5015629;28;20022;-68
2022/12/07 02:55:36;;;;;;;21.50;8.57;;;5.00;99.90;;;;;;5016843;28;20036;-68
2022/12/07 02:58:22;;;;;;;22.90;9.15;;;5.10;99.90;;;;;;5015597;28;20095;-68
2022/12/07 03:01:41;;;;;;;20.33;8.73;;;5.10;99.90;;;;;;5015521;28;20026;-68
2022/12/07 03:04:20;;;;;;;22.30;9.13;;;5.10;99.90;;;;;;5014205;28;20029;-68
2022/12/07 03:06:57;;;;;;;17.70;8.68;;;5.10;99.90;;;;;;5016811;28;20152;-68
2022/12/07 03:09:53;;;;;;;17.13;7.88;;;5.10;99.90;;;;;;5016950;28;20029;-68
2022/12/07 03:12:43;;;;;;;21.98;8.88;;;5.30;99.90;;;;;;5016579;28;20032;-69
2022/12/07 03:15:25;;;;;;;18.15;7.57;;;5.30;99.90;;;;;;5007032;28;20073;-69
2022/12/07 03:17:52;;;;;;;14.77;7.47;;;5.30;99.90;;;;;;5016537;28;20026;-69
2022/12/07 03:20:21;;;;;;;19.58;8.70;;;5.30;99.90;;;;;;5016739;28;20037;-69
2022/12/07 03:22:47;;;;;;;17.10;7.75;;;5.30;99.90;;;;;;5016528;28;20048;-69
2022/12/07 03:25:16;;;;;;;16.52;8.20;;;5.30;99.90;;;;;;5015079;28;20022;-69
2022/12/07 03:27:59;;;;;;;21.52;8.35;;;5.30;99.90;;;;;;5016183;28;20026;-68
2022/12/07 03:30:41;;;;;;;21.70;9.02;;;5.30;99.90;;;;;;5015044;28;20026;-68
2022/12/07 03:33:21;;;;;;;14.27;6.82;;;5.30;99.90;;;;;;5015980;28;20086;-68
2022/12/07 03:35:55;;;;;;;15.07;6.95;;;5.20;99.90;;;;;;5015692;28;20026;-68
2022/12/07 03:38:45;;;;;;;20.80;7.72;;;5.20;99.90;;;;;;5015941;28;20022;-68
2022/12/07 03:41:26;;;;;;;17.08;7.72;;;5.10;99.90;;;;;;5016244;28;20030;-68
2022/12/07 03:43:54;;;;;;;19.95;8.73;;;5.10;99.90;;;;;;5015925;28;20029;-68
2022/12/07 03:46:31;;;;;;;16.92;7.78;;;5.00;99.90;;;;;;5015809;28;20075;-68
2022/12/07 03:49:06;;;;;;;15.20;7.30;;;5.00;99.90;;;;;;5014603;28;20021;-68
2022/12/07 03:51:54;;;;;;;18.88;7.32;;;4.90;99.90;;;;;;5014578;28;20022;-68
2022/12/07 03:54:23;;;;;;;14.25;7.00;;;4.90;99.90;;;;;;5013828;28;20102;-68
2022/12/07 03:56:50;;;;;;;14.77;8.15;;;4.80;99.90;;;;;;5015850;28;20056;-68
2022/12/07 03:59:17;;;;;;;16.80;7.40;;;4.80;99.90;;;;;;5014398;28;20080;-68
2022/12/07 04:01:44;;;;;;;18.75;8.52;;;4.80;99.90;;;;;;5014268;28;20052;-68
2022/12/07 04:04:10;;;;;;;17.70;7.88;;;4.90;99.90;;;;;;5015488;28;20072;-68
2022/12/07 04:06:35;;;;;;;18.38;6.85;;;4.90;99.90;;;;;;5014240;28;20021;-68
2022/12/07 04:09:01;;;;;;;16.65;7.47;;;4.80;99.90;;;;;;5014540;28;20043;-68
2022/12/07 04:11:26;;;;;;;17.13;8.02;;;4.60;99.90;;;;;;5014754;28;20024;-68
2022/12/07 04:16:36;;;;;;;21.20;7.95;;;4.70;99.90;;;;;;5015454;28;20036;-68
2022/12/07 04:19:01;;;;;;;16.58;7.85;;;4.80;99.90;;;;;;5014393;28;20026;-68
2022/12/07 04:21:27;;;;;;;13.52;6.90;;;4.80;99.90;;;;;;5015273;28;20026;-68
2022/12/07 04:23:52;;;;;;;14.98;7.97;;;4.80;99.90;;;;;;5015061;28;20032;-68
2022/12/07 04:26:18;;;;;;;14.40;7.07;;;4.90;99.90;;;;;;5014352;28;20080;-69
2022/12/07 04:28:43;;;;;;;12.80;6.60;;;4.90;99.90;;;;;;5016184;28;20029;-68
2022/12/07 04:31:09;;;;;;;19.05;6.88;;;4.90;99.90;;;;;;5015184;28;20034;-68
2022/12/07 04:33:36;;;;;;;13.60;6.72;;;5.00;99.90;;;;;;5015365;28;20026;-68
2022/12/07 04:36:01;;;;;;;14.25;6.35;;;5.00;99.90;;;;;;5014245;28;20030;-68
2022/12/07 04:38:27;;;;;;;15.73;7.03;;;5.10;99.90;;;;;;5014905;28;20026;-68
2022/12/07 04:40:52;;;;;;;11.90;6.13;;;5.00;99.90;;;;;;5013584;28;20076;-68
2022/12/07 04:43:18;;;;;;;16.85;7.18;;;5.10;99.90;;;;;;5014175;28;20029;-68
2022/12/07 04:45:48;;;;;;;14.45;6.97;;;5.10;99.90;;;;;;5013778;28;20018;-68
2022/12/07 04:48:13;;;;;;;14.73;6.72;;;5.00;99.90;;;;;;5013411;28;20017;-68
2022/12/07 04:50:39;;;;;;;15.75;7.32;;;5.00;99.90;;;;;;5014264;28;20052;-68
2022/12/07 04:53:04;;;;;;;16.63;7.38;;;5.00;99.90;;;;;;5013478;28;20114;-68
2022/12/07 04:55:30;;;;;;;14.55;6.70;;;5.00;99.90;;;;;;5013215;28;20030;-68
2022/12/07 04:57:55;;;;;;;16.00;6.65;;;5.10;99.90;;;;;;5014649;28;20034;-68
2022/12/07 05:00:21;;;;;;;17.50;7.40;;;5.10;99.90;;;;;;5014581;28;20024;-68
2022/12/07 05:02:47;;;;;;;17.77;7.63;;;5.10;99.90;;;;;;5013592;28;20101;-68
2022/12/07 05:05:12;;;;;;;15.73;7.45;;;5.00;99.90;;;;;;5013234;28;20029;-68
2022/12/07 05:07:38;;;;;;;17.35;7.47;;;5.00;99.90;;;;;;5013431;28;20018;-68
2022/12/07 05:10:04;;;;;;;16.80;7.93;;;5.00;99.90;;;;;;5013425;28;20072;-68
2022/12/07 05:12:30;;;;;;;15.35;7.57;;;4.90;99.90;;;;;;5013528;28;20026;-68
2022/12/07 05:14:55;;;;;;;15.38;7.75;;;4.90;99.90;;;;;;5013954;28;20029;-68
2022/12/07 05:17:20;;;;;;;16.27;7.80;;;4.90;99.90;;;;;;5014197;28;20034;-68
2022/12/07 05:19:46;;;;;;;20.10;7.88;;;5.00;99.90;;;;;;5014706;28;20101;-68
2022/12/07 05:22:13;;;;;;;16.00;7.15;;;5.00;99.90;;;;;;5013180;28;20030;-68
2022/12/07 05:24:38;;;;;;;16.95;7.47;;;5.00;99.90;;;;;;5014293;28;20536;-68
2022/12/07 05:27:04;;;;;;;21.60;8.23;;;5.00;99.90;;;;;;5013107;28;20025;-68
2022/12/07 05:29:29;;;;;;;18.55;7.82;;;5.00;99.90;;;;;;5014273;28;20030;-68
2022/12/07 05:31:55;;;;;;;19.10;8.82;;;5.00;99.90;;;;;;5012683;28;20068;-68
2022/12/07 05:34:20;;;;;;;19.00;8.68;;;5.10;99.90;;;;;;5012839;28;20029;-68
2022/12/07 05:36:46;;;;;;;17.35;8.82;;;5.10;99.90;;;;;;5012659;28;20477;-68
2022/12/07 05:39:11;;;;;;;22.90;8.85;;;5.10;99.90;;;;;;5014405;28;20053;-68
2022/12/07 05:44:21;;;;;;;19.83;8.05;;;5.10;99.90;;;;;;5013851;28;20052;-68
2022/12/07 05:46:47;;;;;;;16.65;7.80;;;5.20;99.90;;;;;;5013626;28;20022;-68
2022/12/07 05:49:12;;;;;;;16.38;9.00;;;5.30;99.90;;;;;;5012467;28;20058;-68
2022/12/07 05:51:38;;;;;;;16.05;8.13;;;5.30;99.90;;;;;;5013985;28;20026;-68
2022/12/07 05:54:03;;;;;;;14.75;7.68;;;5.30;99.90;;;;;;5013937;28;20477;-68
2022/12/07 05:56:29;;;;;;;17.45;7.93;;;5.20;99.90;;;;;;5013992;28;20072;-69
2022/12/07 06:01:38;;;;;;;16.65;7.18;;;5.20;99.90;;;;;;5013959;28;20095;-69
2022/12/07 06:04:04;;;;;;;22.90;8.35;;;5.20;99.90;;;;;;5012321;28;20440;-69
2022/12/07 06:06:29;;;;;;;16.08;7.82;;;5.30;99.90;;;;;;5013539;28;20600;-69
2022/12/07 06:08:55;;;;;;;20.08;8.52;;;5.30;99.90;;;;;;5012295;28;20044;-69
2022/12/07 06:14:04;;;;;;;19.90;8.32;;;5.50;99.90;;;;;;5013915;28;20033;-69
2022/12/07 06:16:30;;;;;;;20.80;9.35;;;5.30;99.90;;;;;;5015076;28;20026;-69
2022/12/07 06:18:55;;;;;;;24.88;10.30;;;5.30;99.90;;;;;;5016606;28;20033;-69
2022/12/07 06:21:21;;;;;;;19.10;9.43;;;5.30;99.90;;;;;;5017552;28;20025;-69
2022/12/07 06:23:47;;;;;;;19.23;9.10;;;5.20;99.90;;;;;;5016233;28;20085;-69
2022/12/07 06:26:13;;;;;;;15.85;8.00;;;5.20;99.90;;;;;;5017355;28;20018;-69
2022/12/07 06:28:39;;;;;;;15.27;8.20;;;5.20;99.90;;;;;;5017441;28;20030;-69
2022/12/07 06:31:04;;;;;;;17.58;8.77;;;5.20;99.90;;;;;;5017409;28;20037;-69
2022/12/07 06:33:30;;;;;;;20.27;8.25;;;5.20;99.90;;;;;;5016832;28;20026;-69
2022/12/07 06:35:55;;;;;;;18.63;7.93;;;5.20;99.90;;;;;;5017235;28;20022;-69
2022/12/07 06:38:21;;;;;;;17.70;8.60;;;5.10;99.90;;;;;;5017563;28;20022;-69
2022/12/07 06:40:47;;;;;;;19.30;9.00;;;5.20;99.90;;;;;;5017207;28;20026;-69
2022/12/07 06:43:13;;;;;;;19.13;8.25;;;5.10;99.90;;;;;;5017141;28;20018;-69
2022/12/07 06:45:40;;;;;;;20.33;9.73;;;5.10;99.90;;;;;;5016936;28;20033;-69
2022/12/07 06:48:05;;;;;;;19.45;8.55;;;5.10;99.90;;;;;;5015796;28;20030;-69
2022/12/07 06:50:31;;;;;;;17.55;8.57;;;5.10;99.90;;;;;;5017178;28;20029;-69
2022/12/07 06:52:56;;;;;;;20.38;8.48;;;5.00;99.90;;;;;;5016351;28;20026;-69
2022/12/07 06:55:22;;;;;;;20.13;8.45;;;4.90;99.90;;;;;;5015630;28;20072;-69
2022/12/07 06:57:47;;;;;;;17.85;8.38;;;5.00;99.90;;;;;;5016850;28;20073;-69
2022/12/07 07:00:13;;;;;;;18.50;8.57;;;5.00;99.90;;;;;;5015896;28;20056;-69
2022/12/07 07:02:39;;;;;;;18.27;8.65;;;5.00;99.90;;;;;;5016744;28;20034;-68
2022/12/07 07:05:04;;;;;;;16.77;8.43;;;5.00;99.90;;;;;;5015668;28;20033;-68
2022/12/07 07:07:30;;;;;;;15.63;7.47;;;4.90;99.90;;;;;;5015356;28;20017;-68
2022/12/07 07:09:56;;;;;;;17.25;7.68;;;5.00;99.90;;;;;;5015921;28;20030;-68
2022/12/07 07:12:21;;;;;;;14.68;7.15;;;5.00;99.90;;;;;;5015631;28;20044;-68
2022/12/07 07:14:47;;;;;;;15.00;7.22;;;5.00;99.90;;;;;;5015556;28;20029;-68
2022/12/07 07:17:13;;;;;;;16.67;7.38;;;5.00;99.90;;;;;;5015997;28;20061;-68
2022/12/07 07:19:38;;;;;;;17.42;7.30;;;5.00;99.90;;;;;;5015234;28;20022;-68
2022/12/07 07:22:04;;;;;;;17.30;7.75;;;5.00;99.90;;;;;;5016394;28;20037;-68
2022/12/07 07:24:29;;;;;;;16.13;7.78;;;5.00;99.90;;;;;;5016173;28;20036;-68
2022/12/07 07:26:55;;;;;;;17.58;7.85;;;5.10;99.90;;;;;;5016087;28;20045;-68
2022/12/07 07:29:21;;;;;;;18.13;7.72;;;5.10;99.90;;;;;;5015325;28;20483;-68
2022/12/07 07:31:46;;;;;;;16.20;8.00;;;5.10;99.90;;;;;;5016483;28;20022;-68
2022/12/07 07:34:12;;;;;;;24.25;8.48;;;5.20;99.90;;;;;;5015055;28;20022;-68
2022/12/07 07:36:37;;;;;;;17.00;8.10;;;5.20;99.90;;;;;;5016158;28;20056;-68
2022/12/07 07:39:03;;;;;;;17.00;7.93;;;5.20;99.90;;;;;;5015133;28;20030;-68
2022/12/07 07:41:29;;;;;;;18.67;8.43;;;5.30;99.90;;;;;;5015171;28;20026;-68
2022/12/07 07:43:54;;;;;;;17.27;7.40;;;5.30;99.90;;;;;;5014611;28;20224;-68
2022/12/07 07:46:20;;;;;;;15.00;7.15;;;5.30;99.90;;;;;;5016069;28;20022;-69
2022/12/07 07:48:45;;;;;;;16.17;7.50;;;5.30;99.90;;;;;;5014672;28;20053;-68
2022/12/07 07:51:11;;;;;;;17.40;7.75;;;5.40;99.90;;;;;;5014904;28;20106;-69
2022/12/07 07:53:36;;;;;;;23.48;8.73;;;5.30;99.90;;;;;;5014551;28;20064;-68
2022/12/07 07:56:02;;;;;;;24.77;9.90;;;5.30;99.90;;;;;;5014483;28;20038;-67
2022/12/07 07:58:28;;;;;;;24.50;9.57;;;5.30;99.90;;;;;;5015069;28;20026;-68
2022/12/07 08:00:54;;;;;;;23.85;9.65;;;5.30;99.90;;;;;;5014365;28;20064;-68
2022/12/07 08:03:19;;;;;;;20.02;8.70;;;5.30;99.90;;;;;;5015914;28;20084;-68
2022/12/07 08:05:45;;;;;;;19.58;9.07;;;5.30;99.90;;;;;;5014158;28;20036;-68
2022/12/07 08:08:10;;;;;;;18.75;8.07;;;5.30;99.90;;;;;;5015499;28;20022;-67
2022/12/07 08:10:37;;;;;;;20.83;9.27;;;5.30;99.90;;;;;;5015457;28;20024;-68
2022/12/07 08:13:13;;;;;;;20.10;8.80;;;5.20;99.90;;;;;;5015704;28;20024;-68
2022/12/07 08:15:40;;;;;;;19.50;7.32;;;5.30;99.90;;;;;;5015051;28;20028;-68
2022/12/07 08:18:06;;;;;;;17.08;8.02;;;5.40;99.90;;;;;;5015191;28;20026;-67
2022/12/07 08:20:33;;;;;;;19.92;8.60;;;5.40;99.90;;;;;;5015261;28;20491;-67
2022/12/07 08:22:59;;;;;;;19.58;8.50;;;5.50;99.90;;;;;;5013950;28;20032;-68
2022/12/07 08:25:25;;;;;;;17.30;8.32;;;5.50;99.90;;;;;;5014159;28;20458;-68
2022/12/07 08:27:51;;;;;;;19.25;9.30;;;5.50;99.90;;;;;;5015114;28;20026;-68
2022/12/07 08:30:17;;;;;;;19.33;8.90;;;5.40;99.90;;;;;;5015332;28;20097;-67
2022/12/07 08:32:44;;;;;;;17.90;8.32;;;5.40;99.90;;;;;;5015031;28;20060;-67
2022/12/07 08:35:10;;;;;;;19.88;8.45;;;5.40;99.90;;;;;;5014982;28;20400;-67
2022/12/07 08:37:35;;;;;;;20.30;8.93;;;5.30;99.90;;;;;;5013639;28;20052;-68
2022/12/07 08:40:02;;;;;;;16.33;7.30;;;5.30;99.90;;;;;;5013169;28;20026;-68
2022/12/07 08:42:29;;;;;;;21.20;8.52;;;5.40;99.90;;;;;;5015171;28;20032;-68
2022/12/07 08:44:56;;;;;;;26.60;9.50;;;5.30;99.90;;;;;;5013826;28;20429;-68
2022/12/07 08:47:23;;;;;;;23.52;9.25;;;5.40;99.90;;;;;;5013474;28;20026;-68
2022/12/07 08:49:51;;;;;;;25.02;9.07;;;5.40;99.90;;;;;;5013570;28;20022;-68
2022/12/07 08:52:17;;;;;;;17.45;8.30;;;5.40;99.90;;;;;;5013749;28;20026;-68
2022/12/07 08:54:43;;;;;;;18.90;8.23;;;5.50;99.90;;;;;;5013356;28;20072;-68
2022/12/07 08:57:10;;;;;;;20.17;9.10;;;5.50;99.90;;;;;;5014897;28;20053;-68
2022/12/07 08:59:37;;;;;;;18.23;8.52;;;5.50;99.90;;;;;;5014483;28;20116;-68
2022/12/07 09:02:04;;;;;;;16.98;8.30;;;5.50;99.90;;;;;;5014627;28;20030;-68
2022/12/07 09:04:30;;;;;;;23.60;8.30;;;5.60;99.90;;;;;;5014008;28;20029;-68
2022/12/07 09:06:55;;;;;;;14.80;7.72;;;5.70;99.90;;;;;;5014024;28;20022;-68
2022/12/07 09:09:21;;;;;;;20.92;8.65;;;5.60;99.90;;;;;;5013157;28;20024;-68
2022/12/07 09:11:47;;;;;;;20.73;7.97;;;5.60;99.90;;;;;;5014328;28;20026;-68
2022/12/07 09:14:13;;;;;;;18.65;9.10;;;5.60;99.90;;;;;;5013041;28;20465;-68
2022/12/07 09:16:39;;;;;;;24.77;8.38;;;5.80;99.90;;;;;;5014443;28;20026;-68
2022/12/07 09:19:04;;;;;;;16.95;7.88;;;5.80;99.90;;;;;;5013021;28;20079;-67
2022/12/07 09:21:30;;;;;;;20.00;9.45;;;5.90;99.90;;;;;;5013278;28;20083;-67
2022/12/07 09:23:56;;;;;;;36.47;9.35;;;5.90;99.90;;;;;;5014413;28;20034;-67
2022/12/07 09:26:21;;;;;;;17.58;8.45;;;5.90;99.90;;;;;;5013720;28;20022;-68
2022/12/07 09:28:47;;;;;;;20.35;8.98;;;5.90;99.90;;;;;;5014415;28;20121;-68
2022/12/07 09:31:13;;;;;;;19.45;8.07;;;5.90;99.90;;;;;;5013975;28;20109;-68
2022/12/07 09:33:38;;;;;;;15.20;7.47;;;5.90;99.90;;;;;;5014059;28;20021;-68
2022/12/07 09:36:05;;;;;;;16.50;6.97;;;6.00;99.90;;;;;;5012739;28;20358;-68
2022/12/07 09:38:32;;;;;;;16.48;7.20;;;6.10;99.90;;;;;;5012930;28;20036;-67
2022/12/07 09:41:03;;;;;;;16.00;7.35;;;6.00;99.90;;;;;;5013084;28;20525;-67
2022/12/07 09:43:29;;;;;;;16.20;6.80;;;6.00;99.90;;;;;;5012776;28;20389;-68
2022/12/07 09:45:56;;;;;;;14.93;7.00;;;6.00;99.90;;;;;;5013608;28;20283;-67
2022/12/07 09:48:25;;;;;;;15.75;6.13;;;6.00;99.90;;;;;;5012521;28;20065;-68
2022/12/07 09:50:54;;;;;;;15.25;6.97;;;6.10;99.90;;;;;;5013232;28;20025;-68
2022/12/07 09:53:27;;;;;;;15.57;6.75;;;6.20;99.90;;;;;;5012508;28;20105;-67
2022/12/07 09:55:54;;;;;;;12.20;6.50;;;6.20;99.90;;;;;;5012884;28;20129;-67
2022/12/07 09:58:24;;;;;;;16.05;6.63;;;6.20;99.90;;;;;;5013521;28;20030;-68
2022/12/07 10:01:05;;;;;;;13.52;5.63;;;6.30;99.90;;;;;;5012383;28;20026;-67
2022/12/07 10:03:30;;;;;;;12.82;5.82;;;6.20;99.90;;;;;;5012433;28;20030;-67
2022/12/07 10:05:57;;;;;;;14.20;5.32;;;6.20;99.90;;;;;;5013446;28;20030;-67
2022/12/07 10:08:24;;;;;;;10.32;5.40;;;6.30;99.90;;;;;;5013583;28;20018;-67
2022/12/07 10:10:53;;;;;;;12.07;5.25;;;6.20;99.90;;;;;;5012562;28;20117;-67
2022/12/07 10:13:21;;;;;;;12.30;4.65;;;6.20;99.90;;;;;;5012327;28;20025;-68
2022/12/07 10:15:55;;;;;;;11.27;4.82;;;6.20;99.90;;;;;;5013458;28;20109;-68
2022/12/07 10:18:21;;;;;;;8.65;4.05;;;6.20;99.90;;;;;;5012229;28;20057;-68
2022/12/07 10:20:47;;;;;;;17.38;4.43;;;6.30;99.90;;;;;;5012786;28;20065;-67
2022/12/07 10:23:17;;;;;;;10.38;5.57;;;6.20;99.90;;;;;;5012617;28;20026;-67
2022/12/07 10:25:44;;;;;;;10.63;4.28;;;6.20;99.90;;;;;;5012090;28;20026;-67
2022/12/07 10:28:16;;;;;;;9.13;4.57;;;6.30;99.90;;;;;;5013531;28;20050;-67
2022/12/07 10:30:56;;;;;;;9.18;4.13;;;6.40;99.90;;;;;;5013375;28;20050;-67
2022/12/07 10:33:31;;;;;;;12.18;4.57;;;6.40;99.90;;;;;;5013041;28;20056;-67
2022/12/07 10:36:25;;;;;;;6.63;4.05;;;6.60;99.90;;;;;;5012023;28;20030;-67
2022/12/07 10:39:12;;;;;;;8.55;4.10;;;6.90;99.90;;;;;;5011925;28;20025;-67
2022/12/07 10:41:57;;;;;;;9.05;3.50;;;7.00;99.90;;;;;;5013495;28;20026;-67
2022/12/07 10:44:26;;;;;;;6.45;3.17;;;7.30;99.90;;;;;;5013543;28;20030;-67
2022/12/07 10:47:01;;;;;;;9.30;4.28;;;7.50;99.90;;;;;;5012079;28;20022;-67
2022/12/07 10:49:35;;;;;;;6.65;2.92;;;7.70;99.90;;;;;;5011986;28;20022;-68
2022/12/07 10:52:22;;;;;;;10.25;4.00;;;7.70;99.90;;;;;;5013657;28;20026;-68
2022/12/07 10:55:15;;;;;;;9.73;4.57;;;7.80;99.90;;;;;;5011948;28;20032;-67
2022/12/07 10:57:44;;;;;;;12.20;3.35;;;7.90;99.90;;;;;;5013932;28;20053;-67
2022/12/07 11:00:10;;;;;;;6.70;3.50;;;8.00;99.90;;;;;;5013476;28;20030;-67
2022/12/07 11:02:54;;;;;;;11.63;3.45;;;8.00;99.90;;;;;;5013150;28;20072;-67
2022/12/07 11:05:32;;;;;;;7.50;3.28;;;7.90;99.90;;;;;;5016924;28;20132;-67
2022/12/07 11:08:32;;;;;;;6.70;3.60;;;7.90;99.90;;;;;;5016720;28;20022;-67
2022/12/07 11:11:18;;;;;;;10.13;3.47;;;7.80;99.90;;;;;;5016183;28;20018;-67
2022/12/07 11:14:16;;;;;;;9.43;3.13;;;7.60;99.90;;;;;;5016388;28;20022;-67
2022/12/07 11:16:52;;;;;;;3.03;1.73;;;7.60;99.90;;;;;;4991468;28;20036;-67
2022/12/07 11:19:32;;;;;;;6.13;2.20;;;7.60;99.90;;;;;;5016413;28;20030;-67
2022/12/07 11:22:03;;;;;;;2.72;1.67;;;7.60;99.90;;;;;;5015935;28;20033;-67
2022/12/07 11:24:53;;;;;;;2.92;1.70;;;7.50;99.90;;;;;;5016282;28;20026;-67
2022/12/07 11:27:34;;;;;;;5.75;2.03;;;7.50;99.90;;;;;;5016442;28;20029;-67
2022/12/07 11:30:09;;;;;;;6.10;2.00;;;7.50;99.90;;;;;;5016455;28;20080;-67
2022/12/07 11:32:34;;;;;;;4.47;1.83;;;7.50;99.90;;;;;;5015252;28;20053;-67
2022/12/07 11:39:04;;;;;;;13.35;3.60;;;7.40;99.90;;;;;;5016349;28;20029;-67
2022/12/07 11:41:34;;;;;;;6.70;1.50;;;7.30;99.90;;;;;;5016388;28;20037;-68
2022/12/07 11:44:06;;;;;;;4.25;1.23;;;7.30;99.90;;;;;;5015932;28;20034;-67
2022/12/07 11:46:50;;;;;;;;;;;7.30;99.90;;;;;;5016319;28;20046;-67
2022/12/07 11:49:43;;;;;;;3.38;1.63;;;7.10;99.90;;;;;;5014717;28;19912;-67
2022/12/07 11:52:39;;;;;;;3.47;1.20;;;7.10;99.90;;;;;;5014602;28;20052;-67
2022/12/07 11:55:13;;;;;;;5.45;1.50;;;7.40;99.90;;;;;;5015306;28;20049;-67
2022/12/07 11:57:45;;;;;;;5.95;1.40;;;7.70;99.90;;;;;;5016970;28;20033;-68
2022/12/07 12:00:18;;;;;;;9.82;1.55;;;7.70;99.90;;;;;;5015736;28;20115;-68
2022/12/07 12:02:51;;;;;;;3.33;1.40;;;7.70;99.90;;;;;;5014415;28;20032;-68
2022/12/07 12:05:25;;;;;;;5.38;1.63;;;7.60;99.90;;;;;;5014314;28;20047;-68
2022/12/07 12:08:03;;;;;;;3.75;1.17;;;7.60;99.90;;;;;;5014345;28;20037;-68
2022/12/07 12:10:40;;;;;;;4.00;1.13;;;7.60;99.90;;;;;;5015555;28;20487;-68
2022/12/07 12:13:41;;;;;;;4.80;1.50;;;7.70;99.90;;;;;;5014679;28;20036;-68
2022/12/07 12:16:19;;;;;;;6.40;1.60;;;7.50;99.90;;;;;;5011152;28;20030;-68
2022/12/07 12:19:19;;;;;;;7.35;1.55;;;7.40;99.90;;;;;;5015270;28;20160;-68
2022/12/07 12:21:47;;;;;;;4.30;1.73;;;7.40;99.90;;;;;;5014930;28;20018;-68
2022/12/07 12:24:18;;;;;;;7.22;1.80;;;7.50;99.90;;;;;;5013900;28;20030;-68
2022/12/07 12:27:04;;;;;;;4.75;1.42;;;7.40;99.90;;;;;;5015166;28;20022;-68
2022/12/07 12:29:39;;;;;;;4.03;1.48;;;7.60;99.90;;;;;;5015139;28;20045;-68
2022/12/07 12:32:44;;;;;;;5.32;1.25;;;7.40;99.90;;;;;;5014520;28;20029;-68
2022/12/07 12:35:36;;;;;;;9.18;1.45;;;7.40;99.90;;;;;;5011540;28;20037;-68
2022/12/07 12:38:19;;;;;;;3.90;1.40;;;7.30;99.90;;;;;;5015086;28;20026;-68
2022/12/07 12:40:45;;;;;;;7.25;1.48;;;7.20;99.90;;;;;;5014977;28;20026;-68
2022/12/07 12:43:43;;;;;;;3.78;1.30;;;7.30;99.90;;;;;;5013673;28;20112;-68
2022/12/07 12:46:33;;;;;;;5.25;1.60;;;7.30;99.90;;;;;;5014007;28;20375;-68
2022/12/07 12:49:17;;;;;;;14.30;2.03;;;7.40;99.90;;;;;;5013789;28;20029;-68
2022/12/07 12:51:53;;;;;;;3.47;1.85;;;7.50;99.90;;;;;;5013633;28;20470;-68
2022/12/07 12:54:25;;;;;;;2.30;1.33;;;7.70;99.90;;;;;;5014923;28;20069;-68
2022/12/07 12:57:06;;;;;;;;;;;7.40;99.90;;;;;;5013982;28;20034;-68
2022/12/07 12:59:46;;;;;;;3.42;1.17;;;7.50;99.90;;;;;;5013597;28;19944;-68
2022/12/07 13:02:33;;;;;;;5.35;1.45;;;7.40;99.90;;;;;;5013812;28;20029;-68
2022/12/07 13:05:09;;;;;;;3.53;1.77;;;7.50;99.90;;;;;;5013985;28;20080;-68
2022/12/07 13:07:44;;;;;;;6.53;2.00;;;7.40;99.90;;;;;;5013315;28;20022;-68
2022/12/07 13:10:32;;;;;;;6.07;1.50;;;7.50;99.90;;;;;;5014436;28;20544;-68
2022/12/07 13:13:01;;;;;;;5.13;1.88;;;7.40;99.90;;;;;;5013119;28;20022;-68
2022/12/07 13:15:32;;;;;;;6.30;2.15;;;7.40;99.90;;;;;;5013164;28;20030;-68
2022/12/07 13:18:00;;;;;;;7.80;1.40;;;7.50;99.90;;;;;;5013428;28;20026;-69
2022/12/07 13:20:45;;;;;;;10.70;1.80;;;7.40;99.90;;;;;;5014490;28;20037;-69